sensor_id;sensor_type;location;lat;lon;timestamp;pressure;altitude;pressure_sealevel;temperature;humidity
70027;BME280;57506;50.092;15.804;2023-12-14T00:01:43;97919.94;;;6.01;100.00
70027;BME280;57506;50.092;15.804;2023-12-14T00:04:11;97911.06;;;5.93;100.00
70027;BME280;57506;50.092;15.804;2023-12-14T00:06:37;97918.69;;;5.96;100.00
70027;BME280;57506;50.092;15.804;2023-12-14T00:09:02;97905.44;;;5.88;100.00
70027;BME280;57506;50.092;15.804;2023-12-14T00:11:28;97917.84;;;5.96;100.00
70027;BME280;57506;50.092;15.804;2023-12-14T00:13:54;97859.34;;;5.52;100.00
70027;BME280;57506;50.092;15.804;2023-12-14T00:16:20;97913.47;;;5.88;100.00
70027;BME280;57506;50.092;15.804;2023-12-14T00:18:45;97913.81;;;5.85;100.00
70027;BME280;57506;50.092;15.804;2023-12-14T00:21:11;97907.47;;;5.86;100.00
70027;BME280;57506;50.092;15.804;2023-12-14T00:23:37;97910.81;;;5.88;100.00
70027;BME280;57506;50.092;15.804;2023-12-14T00:26:03;97906.84;;;5.84;100.00
70027;BME280;57506;50.092;15.804;2023-12-14T00:28:28;97930.41;;;5.95;100.00
70027;BME280;57506;50.092;15.804;2023-12-14T00:30:54;97937.53;;;5.88;100.00
70027;BME280;57506;50.092;15.804;2023-12-14T00:33:20;97908.84;;;5.76;100.00
70027;BME280;57506;50.092;15.804;2023-12-14T00:35:45;97906.16;;;5.76;100.00
70027;BME280;57506;50.092;15.804;2023-12-14T00:38:11;97917.94;;;5.81;100.00
70027;BME280;57506;50.092;15.804;2023-12-14T00:40:37;97927.00;;;5.87;100.00
70027;BME280;57506;50.092;15.804;2023-12-14T00:43:02;97935.75;;;5.95;100.00
70027;BME280;57506;50.092;15.804;2023-12-14T00:45:28;97911.94;;;5.79;100.00
70027;BME280;57506;50.092;15.804;2023-12-14T00:47:53;97933.97;;;5.81;100.00
70027;BME280;57506;50.092;15.804;2023-12-14T00:50:19;97947.75;;;5.85;100.00
70027;BME280;57506;50.092;15.804;2023-12-14T00:52:44;97943.66;;;5.82;100.00
70027;BME280;57506;50.092;15.804;2023-12-14T00:55:10;97949.06;;;5.89;100.00
70027;BME280;57506;50.092;15.804;2023-12-14T00:57:36;97950.44;;;5.85;100.00
70027;BME280;57506;50.092;15.804;2023-12-14T01:00:02;97950.91;;;5.88;100.00
70027;BME280;57506;50.092;15.804;2023-12-14T01:02:29;97954.53;;;5.81;100.00
70027;BME280;57506;50.092;15.804;2023-12-14T01:04:55;97951.03;;;5.80;100.00
70027;BME280;57506;50.092;15.804;2023-12-14T01:07:21;97964.63;;;5.85;100.00
70027;BME280;57506;50.092;15.804;2023-12-14T01:09:46;97983.34;;;5.85;100.00
70027;BME280;57506;50.092;15.804;2023-12-14T01:12:12;97953.00;;;5.72;100.00
70027;BME280;57506;50.092;15.804;2023-12-14T01:14:37;97956.69;;;5.71;100.00
70027;BME280;57506;50.092;15.804;2023-12-14T01:17:03;97971.53;;;5.73;100.00
70027;BME280;57506;50.092;15.804;2023-12-14T01:19:29;97988.91;;;5.84;100.00
70027;BME280;57506;50.092;15.804;2023-12-14T01:21:54;97990.13;;;5.81;100.00
70027;BME280;57506;50.092;15.804;2023-12-14T01:24:23;97985.53;;;5.75;100.00
70027;BME280;57506;50.092;15.804;2023-12-14T01:26:48;98005.78;;;5.84;100.00
70027;BME280;57506;50.092;15.804;2023-12-14T01:29:14;98006.16;;;5.81;100.00
70027;BME280;57506;50.092;15.804;2023-12-14T01:31:39;97993.75;;;5.74;100.00
70027;BME280;57506;50.092;15.804;2023-12-14T01:34:05;98000.38;;;5.78;100.00
70027;BME280;57506;50.092;15.804;2023-12-14T01:36:31;97987.94;;;5.70;100.00
70027;BME280;57506;50.092;15.804;2023-12-14T01:38:56;97994.56;;;5.74;100.00
70027;BME280;57506;50.092;15.804;2023-12-14T01:41:22;98008.81;;;5.81;100.00
70027;BME280;57506;50.092;15.804;2023-12-14T01:43:48;97996.66;;;5.79;100.00
70027;BME280;57506;50.092;15.804;2023-12-14T01:46:13;97986.94;;;5.71;100.00
70027;BME280;57506;50.092;15.804;2023-12-14T01:48:41;97995.41;;;5.75;100.00
70027;BME280;57506;50.092;15.804;2023-12-14T01:51:07;97989.59;;;5.71;100.00
70027;BME280;57506;50.092;15.804;2023-12-14T01:53:33;97991.44;;;5.71;100.00
70027;BME280;57506;50.092;15.804;2023-12-14T01:55:59;98007.94;;;5.74;100.00
70027;BME280;57506;50.092;15.804;2023-12-14T01:58:24;98017.16;;;5.72;100.00
70027;BME280;57506;50.092;15.804;2023-12-14T02:03:29;98013.91;;;5.76;100.00
70027;BME280;57506;50.092;15.804;2023-12-14T02:05:55;98011.06;;;5.78;100.00
70027;BME280;57506;50.092;15.804;2023-12-14T02:08:23;98005.00;;;5.69;100.00
70027;BME280;57506;50.092;15.804;2023-12-14T02:10:49;98018.44;;;5.76;100.00
70027;BME280;57506;50.092;15.804;2023-12-14T02:13:15;98022.88;;;5.69;100.00
70027;BME280;57506;50.092;15.804;2023-12-14T02:15:40;98027.47;;;5.75;100.00
70027;BME280;57506;50.092;15.804;2023-12-14T02:18:06;98016.72;;;5.68;100.00
70027;BME280;57506;50.092;15.804;2023-12-14T02:20:31;98031.50;;;5.64;100.00
70027;BME280;57506;50.092;15.804;2023-12-14T02:22:57;98006.53;;;5.57;100.00
70027;BME280;57506;50.092;15.804;2023-12-14T02:25:24;98029.69;;;5.71;100.00
70027;BME280;57506;50.092;15.804;2023-12-14T02:27:50;97979.06;;;5.42;100.00
70027;BME280;57506;50.092;15.804;2023-12-14T02:30:19;98028.75;;;5.79;100.00
70027;BME280;57506;50.092;15.804;2023-12-14T02:32:45;98012.00;;;5.70;100.00
70027;BME280;57506;50.092;15.804;2023-12-14T02:35:11;98007.81;;;5.61;100.00
70027;BME280;57506;50.092;15.804;2023-12-14T02:37:36;98018.88;;;5.58;100.00
70027;BME280;57506;50.092;15.804;2023-12-14T02:40:03;98027.28;;;5.55;100.00
70027;BME280;57506;50.092;15.804;2023-12-14T02:42:30;98041.59;;;5.69;100.00
70027;BME280;57506;50.092;15.804;2023-12-14T02:44:56;98003.75;;;5.44;100.00
70027;BME280;57506;50.092;15.804;2023-12-14T02:47:21;98027.47;;;5.53;100.00
70027;BME280;57506;50.092;15.804;2023-12-14T02:49:47;98033.63;;;5.54;100.00
70027;BME280;57506;50.092;15.804;2023-12-14T02:52:13;98032.63;;;5.55;100.00
70027;BME280;57506;50.092;15.804;2023-12-14T02:54:39;98028.09;;;5.55;100.00
70027;BME280;57506;50.092;15.804;2023-12-14T02:57:04;98022.81;;;5.41;100.00
70027;BME280;57506;50.092;15.804;2023-12-14T02:59:30;98030.72;;;5.49;100.00
70027;BME280;57506;50.092;15.804;2023-12-14T03:01:56;98030.09;;;5.47;100.00
70027;BME280;57506;50.092;15.804;2023-12-14T03:04:21;97999.31;;;5.36;100.00
70027;BME280;57506;50.092;15.804;2023-12-14T03:06:47;98027.22;;;5.48;100.00
70027;BME280;57506;50.092;15.804;2023-12-14T03:09:13;98015.63;;;5.41;100.00
70027;BME280;57506;50.092;15.804;2023-12-14T03:11:38;98034.28;;;5.56;100.00
70027;BME280;57506;50.092;15.804;2023-12-14T03:14:04;98052.41;;;5.60;100.00
70027;BME280;57506;50.092;15.804;2023-12-14T03:16:29;98066.34;;;5.56;100.00
70027;BME280;57506;50.092;15.804;2023-12-14T03:18:55;98028.47;;;5.31;100.00
70027;BME280;57506;50.092;15.804;2023-12-14T03:21:22;98073.53;;;5.55;100.00
70027;BME280;57506;50.092;15.804;2023-12-14T03:23:47;98069.00;;;5.56;100.00
70027;BME280;57506;50.092;15.804;2023-12-14T03:26:13;98044.19;;;5.41;100.00
70027;BME280;57506;50.092;15.804;2023-12-14T03:28:39;98051.00;;;5.43;100.00
70027;BME280;57506;50.092;15.804;2023-12-14T03:31:04;98047.69;;;5.41;100.00
70027;BME280;57506;50.092;15.804;2023-12-14T03:33:30;98029.50;;;5.30;100.00
70027;BME280;57506;50.092;15.804;2023-12-14T03:35:56;98054.31;;;5.45;100.00
70027;BME280;57506;50.092;15.804;2023-12-14T03:38:22;98069.00;;;5.56;100.00
70027;BME280;57506;50.092;15.804;2023-12-14T03:40:48;98070.03;;;5.55;100.00
70027;BME280;57506;50.092;15.804;2023-12-14T03:43:13;98067.53;;;5.53;100.00
70027;BME280;57506;50.092;15.804;2023-12-14T03:45:39;98063.84;;;5.54;100.00
70027;BME280;57506;50.092;15.804;2023-12-14T03:48:05;98071.31;;;5.59;100.00
70027;BME280;57506;50.092;15.804;2023-12-14T03:50:30;98059.66;;;5.45;100.00
70027;BME280;57506;50.092;15.804;2023-12-14T03:52:58;98029.78;;;5.20;100.00
70027;BME280;57506;50.092;15.804;2023-12-14T03:55:23;98046.25;;;5.24;100.00
70027;BME280;57506;50.092;15.804;2023-12-14T03:57:49;98101.03;;;5.49;100.00
70027;BME280;57506;50.092;15.804;2023-12-14T04:00:15;98100.56;;;5.46;100.00
70027;BME280;57506;50.092;15.804;2023-12-14T04:02:41;98089.16;;;5.37;100.00
70027;BME280;57506;50.092;15.804;2023-12-14T04:05:07;98098.72;;;5.46;100.00
70027;BME280;57506;50.092;15.804;2023-12-14T04:07:36;98062.38;;;5.31;100.00
70027;BME280;57506;50.092;15.804;2023-12-14T04:10:01;98102.50;;;5.52;100.00
70027;BME280;57506;50.092;15.804;2023-12-14T04:12:27;98084.91;;;5.43;100.00
70027;BME280;57506;50.092;15.804;2023-12-14T04:14:52;98120.81;;;5.55;100.00
70027;BME280;57506;50.092;15.804;2023-12-14T04:17:18;98122.22;;;5.51;100.00
70027;BME280;57506;50.092;15.804;2023-12-14T04:19:43;98102.59;;;5.44;100.00
70027;BME280;57506;50.092;15.804;2023-12-14T04:22:09;98116.22;;;5.49;100.00
70027;BME280;57506;50.092;15.804;2023-12-14T04:24:34;98134.16;;;5.55;100.00
70027;BME280;57506;50.092;15.804;2023-12-14T04:27:00;98121.94;;;5.46;100.00
70027;BME280;57506;50.092;15.804;2023-12-14T04:29:25;98100.22;;;5.34;100.00
70027;BME280;57506;50.092;15.804;2023-12-14T04:31:51;98113.00;;;5.39;100.00
70027;BME280;57506;50.092;15.804;2023-12-14T04:34:18;98124.97;;;5.43;100.00
70027;BME280;57506;50.092;15.804;2023-12-14T04:36:47;98146.06;;;5.52;100.00
70027;BME280;57506;50.092;15.804;2023-12-14T04:39:13;98150.31;;;5.47;100.00
70027;BME280;57506;50.092;15.804;2023-12-14T04:41:39;98153.28;;;5.52;100.00
70027;BME280;57506;50.092;15.804;2023-12-14T04:44:05;98150.69;;;5.44;100.00
70027;BME280;57506;50.092;15.804;2023-12-14T04:46:30;98147.38;;;5.42;100.00
70027;BME280;57506;50.092;15.804;2023-12-14T04:48:56;98157.88;;;5.43;100.00
70027;BME280;57506;50.092;15.804;2023-12-14T04:51:21;98120.22;;;5.23;100.00
70027;BME280;57506;50.092;15.804;2023-12-14T04:53:47;98148.31;;;5.34;100.00
70027;BME280;57506;50.092;15.804;2023-12-14T04:56:12;98170.41;;;5.43;100.00
70027;BME280;57506;50.092;15.804;2023-12-14T04:58:39;98173.44;;;5.40;100.00
70027;BME280;57506;50.092;15.804;2023-12-14T05:01:05;98185.31;;;5.37;100.00
70027;BME280;57506;50.092;15.804;2023-12-14T05:03:31;98181.00;;;5.36;100.00
70027;BME280;57506;50.092;15.804;2023-12-14T05:05:56;98196.47;;;5.41;100.00
70027;BME280;57506;50.092;15.804;2023-12-14T05:08:22;98178.72;;;5.33;100.00
70027;BME280;57506;50.092;15.804;2023-12-14T05:10:49;98161.94;;;5.24;100.00
70027;BME280;57506;50.092;15.804;2023-12-14T05:13:15;98159.38;;;5.16;100.00
70027;BME280;57506;50.092;15.804;2023-12-14T05:15:40;98179.72;;;5.32;100.00
70027;BME280;57506;50.092;15.804;2023-12-14T05:18:07;98206.44;;;5.47;100.00
70027;BME280;57506;50.092;15.804;2023-12-14T05:20:33;98194.94;;;5.32;100.00
70027;BME280;57506;50.092;15.804;2023-12-14T05:22:58;98157.06;;;5.13;100.00
70027;BME280;57506;50.092;15.804;2023-12-14T05:25:24;98206.16;;;5.42;100.00
70027;BME280;57506;50.092;15.804;2023-12-14T05:27:49;98204.03;;;5.37;100.00
70027;BME280;57506;50.092;15.804;2023-12-14T05:30:15;98222.38;;;5.40;100.00
70027;BME280;57506;50.092;15.804;2023-12-14T05:32:40;98217.03;;;5.40;100.00
70027;BME280;57506;50.092;15.804;2023-12-14T05:35:07;98237.84;;;5.45;100.00
70027;BME280;57506;50.092;15.804;2023-12-14T05:37:32;98176.66;;;5.06;100.00
70027;BME280;57506;50.092;15.804;2023-12-14T05:39:58;98235.81;;;5.32;100.00
70027;BME280;57506;50.092;15.804;2023-12-14T05:42:23;98219.34;;;5.28;100.00
70027;BME280;57506;50.092;15.804;2023-12-14T05:44:49;98203.00;;;5.09;100.00
70027;BME280;57506;50.092;15.804;2023-12-14T05:47:15;98260.06;;;5.45;100.00
70027;BME280;57506;50.092;15.804;2023-12-14T05:49:43;98261.72;;;5.46;100.00
70027;BME280;57506;50.092;15.804;2023-12-14T05:52:10;98269.72;;;5.46;100.00
70027;BME280;57506;50.092;15.804;2023-12-14T05:54:36;98232.97;;;5.19;100.00
70027;BME280;57506;50.092;15.804;2023-12-14T05:57:02;98268.72;;;5.33;100.00
70027;BME280;57506;50.092;15.804;2023-12-14T05:59:28;98264.75;;;5.28;100.00
70027;BME280;57506;50.092;15.804;2023-12-14T06:01:57;98281.91;;;5.34;100.00
70027;BME280;57506;50.092;15.804;2023-12-14T06:04:23;98278.75;;;5.31;100.00
70027;BME280;57506;50.092;15.804;2023-12-14T06:06:48;98271.09;;;5.27;100.00
70027;BME280;57506;50.092;15.804;2023-12-14T06:09:14;98268.78;;;5.24;100.00
70027;BME280;57506;50.092;15.804;2023-12-14T06:11:39;98293.78;;;5.46;100.00
70027;BME280;57506;50.092;15.804;2023-12-14T06:14:05;98290.53;;;5.36;100.00
70027;BME280;57506;50.092;15.804;2023-12-14T06:16:30;98309.69;;;5.40;100.00
70027;BME280;57506;50.092;15.804;2023-12-14T06:18:56;98281.13;;;5.25;100.00
70027;BME280;57506;50.092;15.804;2023-12-14T06:21:21;98314.88;;;5.41;100.00
70027;BME280;57506;50.092;15.804;2023-12-14T06:23:48;98312.72;;;5.37;100.00
70027;BME280;57506;50.092;15.804;2023-12-14T06:26:13;98255.56;;;4.93;100.00
70027;BME280;57506;50.092;15.804;2023-12-14T06:28:39;98282.94;;;5.10;100.00
70027;BME280;57506;50.092;15.804;2023-12-14T06:31:04;98299.00;;;5.25;100.00
70027;BME280;57506;50.092;15.804;2023-12-14T06:33:31;98318.91;;;5.37;100.00
70027;BME280;57506;50.092;15.804;2023-12-14T06:35:56;98331.81;;;5.34;100.00
70027;BME280;57506;50.092;15.804;2023-12-14T06:38:22;98304.97;;;5.12;100.00
70027;BME280;57506;50.092;15.804;2023-12-14T06:40:48;98318.13;;;5.14;100.00
70027;BME280;57506;50.092;15.804;2023-12-14T06:43:13;98335.84;;;5.30;100.00
70027;BME280;57506;50.092;15.804;2023-12-14T06:45:39;98305.03;;;5.04;100.00
70027;BME280;57506;50.092;15.804;2023-12-14T06:48:04;98350.41;;;5.27;100.00
70027;BME280;57506;50.092;15.804;2023-12-14T06:50:30;98320.69;;;5.07;100.00
70027;BME280;57506;50.092;15.804;2023-12-14T06:52:55;98334.03;;;5.07;100.00
70027;BME280;57506;50.092;15.804;2023-12-14T06:55:21;98359.59;;;5.24;100.00
70027;BME280;57506;50.092;15.804;2023-12-14T06:57:46;98356.44;;;5.21;100.00
70027;BME280;57506;50.092;15.804;2023-12-14T07:00:13;98363.59;;;5.28;100.00
70027;BME280;57506;50.092;15.804;2023-12-14T07:02:39;98306.66;;;4.90;100.00
70027;BME280;57506;50.092;15.804;2023-12-14T07:05:04;98367.25;;;5.27;100.00
70027;BME280;57506;50.092;15.804;2023-12-14T07:07:30;98380.25;;;5.31;100.00
70027;BME280;57506;50.092;15.804;2023-12-14T07:09:55;98373.91;;;5.32;100.00
70027;BME280;57506;50.092;15.804;2023-12-14T07:12:21;98376.59;;;5.32;100.00
70027;BME280;57506;50.092;15.804;2023-12-14T07:14:46;98374.16;;;5.22;100.00
70027;BME280;57506;50.092;15.804;2023-12-14T07:17:12;98377.81;;;5.21;100.00
70027;BME280;57506;50.092;15.804;2023-12-14T07:19:37;98385.13;;;5.27;100.00
70027;BME280;57506;50.092;15.804;2023-12-14T07:22:05;98385.38;;;5.17;100.00
70027;BME280;57506;50.092;15.804;2023-12-14T07:24:31;98401.34;;;5.25;100.00
70027;BME280;57506;50.092;15.804;2023-12-14T07:26:57;98400.50;;;5.25;100.00
70027;BME280;57506;50.092;15.804;2023-12-14T07:29:22;98403.00;;;5.26;100.00
70027;BME280;57506;50.092;15.804;2023-12-14T07:31:48;98322.34;;;4.71;100.00
70027;BME280;57506;50.092;15.804;2023-12-14T07:34:13;98390.34;;;5.20;100.00
70027;BME280;57506;50.092;15.804;2023-12-14T07:36:39;98384.81;;;5.22;100.00
70027;BME280;57506;50.092;15.804;2023-12-14T07:39:05;98397.31;;;5.30;100.00
70027;BME280;57506;50.092;15.804;2023-12-14T07:41:31;98399.88;;;5.38;100.00
70027;BME280;57506;50.092;15.804;2023-12-14T07:43:57;98396.03;;;5.40;100.00
70027;BME280;57506;50.092;15.804;2023-12-14T07:46:23;98399.34;;;5.42;100.00
70027;BME280;57506;50.092;15.804;2023-12-14T07:48:49;98418.44;;;5.54;100.00
70027;BME280;57506;50.092;15.804;2023-12-14T07:51:15;98406.84;;;5.47;100.00
70027;BME280;57506;50.092;15.804;2023-12-14T07:53:41;98414.94;;;5.53;100.00
70027;BME280;57506;50.092;15.804;2023-12-14T07:56:08;98420.94;;;5.55;100.00
70027;BME280;57506;50.092;15.804;2023-12-14T07:58:33;98418.75;;;5.59;100.00
70027;BME280;57506;50.092;15.804;2023-12-14T08:00:59;98421.50;;;5.51;100.00
70027;BME280;57506;50.092;15.804;2023-12-14T08:03:24;98444.63;;;5.58;100.00
70027;BME280;57506;50.092;15.804;2023-12-14T08:05:50;98448.31;;;5.57;100.00
70027;BME280;57506;50.092;15.804;2023-12-14T08:08:16;98438.81;;;5.55;100.00
70027;BME280;57506;50.092;15.804;2023-12-14T08:10:41;98447.13;;;5.60;100.00
70027;BME280;57506;50.092;15.804;2023-12-14T08:13:07;98438.16;;;5.53;100.00
70027;BME280;57506;50.092;15.804;2023-12-14T08:15:32;98434.97;;;5.57;100.00
70027;BME280;57506;50.092;15.804;2023-12-14T08:17:58;98450.81;;;5.59;100.00
70027;BME280;57506;50.092;15.804;2023-12-14T08:20:24;98460.06;;;5.71;100.00
70027;BME280;57506;50.092;15.804;2023-12-14T08:22:49;98386.41;;;5.16;100.00
70027;BME280;57506;50.092;15.804;2023-12-14T08:25:15;98454.16;;;5.61;100.00
70027;BME280;57506;50.092;15.804;2023-12-14T08:27:41;98469.25;;;5.69;100.00
70027;BME280;57506;50.092;15.804;2023-12-14T08:30:10;98468.47;;;5.68;100.00
70027;BME280;57506;50.092;15.804;2023-12-14T08:32:36;98467.41;;;5.69;100.00
70027;BME280;57506;50.092;15.804;2023-12-14T08:35:02;98487.38;;;5.81;100.00
70027;BME280;57506;50.092;15.804;2023-12-14T08:37:28;98491.44;;;5.77;100.00
70027;BME280;57506;50.092;15.804;2023-12-14T08:39:53;98419.16;;;5.33;100.00
70027;BME280;57506;50.092;15.804;2023-12-14T08:42:19;98482.94;;;5.74;100.00
70027;BME280;57506;50.092;15.804;2023-12-14T08:44:44;98508.56;;;5.91;100.00
70027;BME280;57506;50.092;15.804;2023-12-14T08:47:10;98492.25;;;5.78;100.00
70027;BME280;57506;50.092;15.804;2023-12-14T08:49:35;98502.69;;;5.87;100.00
70027;BME280;57506;50.092;15.804;2023-12-14T08:52:01;98506.75;;;5.83;100.00
70027;BME280;57506;50.092;15.804;2023-12-14T08:54:27;98459.50;;;5.61;100.00
70027;BME280;57506;50.092;15.804;2023-12-14T08:56:52;98512.72;;;5.93;100.00
70027;BME280;57506;50.092;15.804;2023-12-14T08:59:18;98468.47;;;5.68;100.00
70027;BME280;57506;50.092;15.804;2023-12-14T09:01:45;98513.19;;;5.97;100.00
70027;BME280;57506;50.092;15.804;2023-12-14T09:04:11;98530.28;;;6.11;100.00
70027;BME280;57506;50.092;15.804;2023-12-14T09:06:37;98514.19;;;5.96;100.00
70027;BME280;57506;50.092;15.804;2023-12-14T09:09:02;98519.53;;;5.96;100.00
70027;BME280;57506;50.092;15.804;2023-12-14T09:11:29;98541.81;;;6.11;100.00
70027;BME280;57506;50.092;15.804;2023-12-14T09:13:55;98512.63;;;6.02;100.00
70027;BME280;57506;50.092;15.804;2023-12-14T09:16:20;98515.22;;;5.95;100.00
70027;BME280;57506;50.092;15.804;2023-12-14T09:18:46;98538.00;;;6.06;100.00
70027;BME280;57506;50.092;15.804;2023-12-14T09:21:12;98558.59;;;6.20;100.00
70027;BME280;57506;50.092;15.804;2023-12-14T09:23:40;98565.78;;;6.19;100.00
70027;BME280;57506;50.092;15.804;2023-12-14T09:26:06;98554.25;;;6.19;100.00
70027;BME280;57506;50.092;15.804;2023-12-14T09:28:32;98572.91;;;6.27;100.00
70027;BME280;57506;50.092;15.804;2023-12-14T09:30:57;98551.75;;;6.17;100.00
70027;BME280;57506;50.092;15.804;2023-12-14T09:33:23;98573.56;;;6.29;100.00
70027;BME280;57506;50.092;15.804;2023-12-14T09:35:48;98559.53;;;6.27;100.00
70027;BME280;57506;50.092;15.804;2023-12-14T09:38:14;98499.88;;;5.89;100.00
70027;BME280;57506;50.092;15.804;2023-12-14T09:40:43;98566.25;;;6.23;100.00
70027;BME280;57506;50.092;15.804;2023-12-14T09:43:10;98592.78;;;6.32;100.00
70027;BME280;57506;50.092;15.804;2023-12-14T09:45:38;98599.31;;;6.30;100.00
70027;BME280;57506;50.092;15.804;2023-12-14T09:48:10;98601.34;;;6.28;100.00
70027;BME280;57506;50.092;15.804;2023-12-14T09:50:37;98572.34;;;6.17;100.00
70027;BME280;57506;50.092;15.804;2023-12-14T09:53:04;98583.97;;;6.24;100.00
70027;BME280;57506;50.092;15.804;2023-12-14T09:55:29;98596.28;;;6.33;100.00
70027;BME280;57506;50.092;15.804;2023-12-14T09:57:56;98589.34;;;6.24;100.00
70027;BME280;57506;50.092;15.804;2023-12-14T10:00:36;98585.66;;;6.25;100.00
70027;BME280;57506;50.092;15.804;2023-12-14T10:03:22;98608.44;;;6.36;100.00
70027;BME280;57506;50.092;15.804;2023-12-14T10:05:48;98588.63;;;6.30;100.00
70027;BME280;57506;50.092;15.804;2023-12-14T10:08:15;98583.28;;;6.30;100.00
70027;BME280;57506;50.092;15.804;2023-12-14T10:10:42;98530.28;;;6.11;100.00
70027;BME280;57506;50.092;15.804;2023-12-14T10:13:08;98599.91;;;6.55;100.00
70027;BME280;57506;50.092;15.804;2023-12-14T10:15:42;98587.50;;;6.39;100.00
70027;BME280;57506;50.092;15.804;2023-12-14T10:18:07;98523.97;;;6.04;100.00
70027;BME280;57506;50.092;15.804;2023-12-14T10:20:33;98607.59;;;6.58;100.00
70027;BME280;57506;50.092;15.804;2023-12-14T10:22:58;98600.69;;;6.63;100.00
70027;BME280;57506;50.092;15.804;2023-12-14T10:25:24;98599.44;;;6.51;100.00
70027;BME280;57506;50.092;15.804;2023-12-14T10:27:53;98601.50;;;6.49;100.00
70027;BME280;57506;50.092;15.804;2023-12-14T10:30:18;98623.75;;;6.64;100.00
70027;BME280;57506;50.092;15.804;2023-12-14T10:32:47;98611.94;;;6.59;100.00
70027;BME280;57506;50.092;15.804;2023-12-14T10:35:14;98616.63;;;6.57;100.00
70027;BME280;57506;50.092;15.804;2023-12-14T10:37:42;98604.59;;;6.53;100.00
70027;BME280;57506;50.092;15.804;2023-12-14T10:40:11;98629.94;;;6.65;100.00
70027;BME280;57506;50.092;15.804;2023-12-14T10:42:39;98637.53;;;6.76;100.00
70027;BME280;57506;50.092;15.804;2023-12-14T10:45:08;98631.56;;;6.66;100.00
70027;BME280;57506;50.092;15.804;2023-12-14T10:47:38;98656.25;;;6.76;100.00
70027;BME280;57506;50.092;15.804;2023-12-14T10:50:05;98641.09;;;6.68;100.00
70027;BME280;57506;50.092;15.804;2023-12-14T10:52:31;98616.81;;;6.55;100.00
70027;BME280;57506;50.092;15.804;2023-12-14T10:55:07;98649.91;;;6.77;100.00
70027;BME280;57506;50.092;15.804;2023-12-14T10:57:34;98657.94;;;6.77;100.00
70027;BME280;57506;50.092;15.804;2023-12-14T11:00:00;98659.78;;;6.77;100.00
70027;BME280;57506;50.092;15.804;2023-12-14T11:02:27;98636.19;;;6.57;100.00
70027;BME280;57506;50.092;15.804;2023-12-14T11:04:57;98668.91;;;6.82;100.00
70027;BME280;57506;50.092;15.804;2023-12-14T11:07:46;98659.41;;;6.80;100.00
70027;BME280;57506;50.092;15.804;2023-12-14T11:10:13;98648.03;;;6.63;100.00
70027;BME280;57506;50.092;15.804;2023-12-14T11:15:23;98648.13;;;6.70;100.00
70027;BME280;57506;50.092;15.804;2023-12-14T11:21:00;98681.94;;;6.85;100.00
70027;BME280;57506;50.092;15.804;2023-12-14T11:25:58;98674.09;;;6.84;100.00
70027;BME280;57506;50.092;15.804;2023-12-14T11:28:24;98695.63;;;6.90;100.00
70027;BME280;57506;50.092;15.804;2023-12-14T11:30:50;98692.41;;;6.95;100.00
70027;BME280;57506;50.092;15.804;2023-12-14T11:33:16;98676.31;;;6.80;100.00
70027;BME280;57506;50.092;15.804;2023-12-14T11:35:42;98682.59;;;6.87;100.00
70027;BME280;57506;50.092;15.804;2023-12-14T11:38:07;98680.38;;;6.76;100.00
70027;BME280;57506;50.092;15.804;2023-12-14T11:40:42;98684.41;;;6.72;100.00
70027;BME280;57506;50.092;15.804;2023-12-14T11:43:08;98688.59;;;6.75;100.00
70027;BME280;57506;50.092;15.804;2023-12-14T11:45:38;98692.84;;;6.84;100.00
70027;BME280;57506;50.092;15.804;2023-12-14T11:48:09;98710.56;;;6.85;100.00
70027;BME280;57506;50.092;15.804;2023-12-14T11:50:43;98693.22;;;6.81;100.00
70027;BME280;57506;50.092;15.804;2023-12-14T11:53:09;98694.22;;;6.80;100.00
70027;BME280;57506;50.092;15.804;2023-12-14T11:55:38;98706.16;;;6.92;100.00
70027;BME280;57506;50.092;15.804;2023-12-14T11:58:05;98696.91;;;6.80;100.00
70027;BME280;57506;50.092;15.804;2023-12-14T12:00:32;98688.00;;;6.64;100.00
70027;BME280;57506;50.092;15.804;2023-12-14T12:05:46;98699.94;;;6.77;100.00
70027;BME280;57506;50.092;15.804;2023-12-14T12:08:14;98710.97;;;6.82;100.00
70027;BME280;57506;50.092;15.804;2023-12-14T12:10:43;98698.28;;;6.76;100.00
70027;BME280;57506;50.092;15.804;2023-12-14T12:13:13;98704.66;;;6.75;100.00
70027;BME280;57506;50.092;15.804;2023-12-14T12:15:39;98697.44;;;6.75;100.00
70027;BME280;57506;50.092;15.804;2023-12-14T12:18:10;98689.03;;;6.63;100.00
70027;BME280;57506;50.092;15.804;2023-12-14T12:20:39;98721.94;;;6.87;100.00
70027;BME280;57506;50.092;15.804;2023-12-14T12:23:04;98712.69;;;6.75;100.00
70027;BME280;57506;50.092;15.804;2023-12-14T12:25:31;98730.97;;;6.86;100.00
70027;BME280;57506;50.092;15.804;2023-12-14T12:27:58;98732.81;;;6.85;100.00
70027;BME280;57506;50.092;15.804;2023-12-14T12:30:24;98736.06;;;6.81;100.00
70027;BME280;57506;50.092;15.804;2023-12-14T12:32:50;98725.88;;;6.76;100.00
70027;BME280;57506;50.092;15.804;2023-12-14T12:35:21;98735.84;;;6.82;100.00
70027;BME280;57506;50.092;15.804;2023-12-14T12:37:47;98717.75;;;6.70;100.00
70027;BME280;57506;50.092;15.804;2023-12-14T12:40:19;98753.84;;;6.96;100.00
70027;BME280;57506;50.092;15.804;2023-12-14T12:42:45;98728.97;;;6.88;100.00
70027;BME280;57506;50.092;15.804;2023-12-14T12:45:14;98751.16;;;6.96;100.00
70027;BME280;57506;50.092;15.804;2023-12-14T12:47:41;98735.63;;;6.92;100.00
70027;BME280;57506;50.092;15.804;2023-12-14T12:50:07;98713.16;;;6.78;100.00
70027;BME280;57506;50.092;15.804;2023-12-14T12:52:32;98765.25;;;6.90;100.00
70027;BME280;57506;50.092;15.804;2023-12-14T12:54:58;98761.75;;;6.90;100.00
70027;BME280;57506;50.092;15.804;2023-12-14T12:57:23;98764.53;;;6.82;100.00
70027;BME280;57506;50.092;15.804;2023-12-14T12:59:49;98767.38;;;6.80;100.00